createdAt,value
2024-03-28T00:05:49.983Z,3.5
2024-03-28T00:14:05.476Z,3.4
2024-03-28T00:22:20.989Z,3.4
2024-03-28T00:30:36.510Z,3.3
2024-03-28T00:38:52.051Z,3.2
2024-03-28T00:47:07.565Z,3.2
2024-03-28T00:55:23.189Z,3.1
2024-03-28T01:11:54.080Z,2.9
2024-03-28T01:20:09.606Z,2.9
2024-03-28T01:28:25.121Z,2.9
2024-03-28T01:36:40.573Z,3
2024-03-28T01:44:56.095Z,3.1
2024-03-28T01:53:11.581Z,3
2024-03-28T02:01:27.288Z,3.3
2024-03-28T02:09:42.636Z,3.5
2024-03-28T02:17:58.188Z,3.6
2024-03-28T02:26:13.665Z,3.7
2024-03-28T02:34:29.212Z,3.9
2024-03-28T02:42:44.761Z,4.1
2024-03-28T02:51:00.323Z,4.3
2024-03-28T02:59:15.854Z,4.9
2024-03-28T03:07:31.465Z,4.9
2024-03-28T03:15:46.979Z,4.8
2024-03-28T03:24:02.582Z,4.9
2024-03-28T03:32:18.073Z,5
2024-03-28T03:40:33.676Z,5
2024-03-28T03:57:04.898Z,5.1
2024-03-28T04:05:20.450Z,5.2
2024-03-28T04:14:11.085Z,5.1
2024-03-28T04:21:51.627Z,5.2
2024-03-28T04:30:07.243Z,5.3
2024-03-28T04:38:22.844Z,5.5
2024-03-28T04:46:38.364Z,5.5
2024-03-28T04:54:53.975Z,5.6
2024-03-28T05:03:09.549Z,5.5
2024-03-28T05:11:25.751Z,5.5
2024-03-28T05:19:40.908Z,5.7
2024-03-28T05:27:56.418Z,5.5
2024-03-28T05:44:27.576Z,5.4
2024-03-28T05:52:43.192Z,5.2
2024-03-28T06:00:58.740Z,5.2
2024-03-28T06:09:14.307Z,5.2
2024-03-28T06:17:29.938Z,5.2
2024-03-28T06:25:45.487Z,5.2
2024-03-28T06:34:01.058Z,5.3
2024-03-28T06:42:16.601Z,5.2
2024-03-28T06:50:32.198Z,5.2
2024-03-28T06:58:47.789Z,5.3
2024-03-28T07:07:03.362Z,5.3
2024-03-28T07:15:18.927Z,5.4
2024-03-28T07:23:34.533Z,5.6
2024-03-28T07:31:50.244Z,5.9
2024-03-28T07:40:05.723Z,6
2024-03-28T07:48:21.349Z,6.6
2024-03-28T07:56:36.939Z,7.2
2024-03-28T08:04:52.582Z,7.4
2024-03-28T08:13:08.212Z,7.5
2024-03-28T08:21:23.910Z,7.8
2024-03-28T08:29:39.565Z,8.8
2024-03-28T08:37:55.311Z,9.3
2024-03-28T08:46:10.994Z,9.5
2024-03-28T08:54:26.719Z,9.6
2024-03-28T09:02:42.531Z,9.2
2024-03-28T09:10:58.196Z,9.7
2024-03-28T09:19:13.971Z,10.2
2024-03-28T09:27:29.771Z,10.4
2024-03-28T09:35:45.526Z,10.2
2024-03-28T09:44:01.429Z,10.4
2024-03-28T09:52:17.130Z,10.4
2024-03-28T10:00:32.876Z,10.4
2024-03-28T10:08:48.686Z,10.3
2024-03-28T10:17:04.472Z,10.6
2024-03-28T10:25:20.259Z,10.7
2024-03-28T10:33:36.032Z,10.8
2024-03-28T10:41:51.863Z,11.2
2024-03-28T10:58:23.546Z,11
2024-03-28T11:06:39.283Z,11.2
2024-03-28T11:23:10.938Z,11.1
2024-03-28T11:31:26.752Z,11
2024-03-28T11:39:42.569Z,11.1
2024-03-28T11:47:58.476Z,11.2
2024-03-28T11:56:14.230Z,11.9
2024-03-28T12:04:30.186Z,11.6
2024-03-28T12:12:45.929Z,11.5
2024-03-28T12:21:01.772Z,11.4
2024-03-28T12:29:17.564Z,11.1
2024-03-28T12:37:33.411Z,11.5
2024-03-28T12:45:49.250Z,11.5
2024-03-28T12:54:05.107Z,11.5
2024-03-28T13:02:20.982Z,11.9
2024-03-28T13:10:37.062Z,11.7
2024-03-28T13:18:52.684Z,11.7
2024-03-28T13:27:22.253Z,11.8
2024-03-28T13:35:24.420Z,12.4
2024-03-28T13:43:40.323Z,13.1
2024-03-28T13:51:56.197Z,13.5
2024-03-28T14:00:12.102Z,14.3
2024-03-28T14:08:28.047Z,15.9
2024-03-28T14:16:44.266Z,17.4
2024-03-28T14:25:00.219Z,16.8
2024-03-28T14:33:16.355Z,18.2
2024-03-28T14:41:32.492Z,19.2
2024-03-28T14:49:48.630Z,19
2024-03-28T14:58:04.827Z,20.6
2024-03-28T15:06:21.008Z,19.7
2024-03-28T15:14:37.191Z,18.4
2024-03-28T15:22:53.425Z,18.3
2024-03-28T15:39:25.711Z,15.3
2024-03-28T15:47:41.710Z,16
2024-03-28T15:55:57.782Z,17.1
2024-03-28T16:04:16.540Z,17.4
2024-03-28T16:12:29.918Z,18.9
2024-03-28T16:20:46.029Z,19.4
2024-03-28T16:29:06.654Z,19.4
2024-03-28T16:37:18.220Z,18.4
2024-03-28T16:45:34.412Z,18.2
2024-03-28T16:53:50.497Z,17.7
2024-03-28T17:02:06.619Z,16.4
2024-03-28T17:10:22.662Z,16.7
2024-03-28T17:18:38.738Z,16.5
2024-03-28T17:26:54.779Z,14.4
2024-03-28T17:35:10.787Z,13.8
2024-03-28T17:43:26.714Z,13.3
2024-03-28T17:51:42.627Z,13.1
2024-03-28T17:59:58.545Z,12.7
2024-03-28T18:08:14.405Z,12.6
2024-03-28T18:16:30.302Z,12.4
2024-03-28T18:24:46.157Z,12.2
2024-03-28T18:33:02.028Z,12
2024-03-28T18:41:17.878Z,12
2024-03-28T18:49:33.666Z,11.8
2024-03-28T19:06:05.392Z,11.6
2024-03-28T19:14:21.174Z,11.4
2024-03-28T19:22:37.030Z,11.3
2024-03-28T19:30:52.777Z,11
2024-03-28T19:39:11.377Z,10.8
2024-03-28T19:47:24.413Z,10.8
2024-03-28T19:55:40.161Z,10.6
2024-03-28T20:03:55.940Z,10.5
2024-03-28T20:20:27.526Z,10.6
2024-03-28T20:28:43.262Z,10.4
2024-03-28T20:36:59.102Z,10.3
2024-03-28T20:45:14.837Z,10.4
2024-03-28T20:53:30.731Z,10.5
2024-03-28T21:01:46.397Z,10.7
2024-03-28T21:10:02.239Z,10.7
2024-03-28T21:18:17.975Z,10.7
2024-03-28T21:26:33.795Z,10.7
2024-03-28T21:34:49.571Z,10.7
2024-03-28T21:43:05.429Z,10.8
2024-03-28T21:51:21.166Z,10.6
2024-03-28T21:59:37.051Z,10.4
2024-03-28T22:07:52.778Z,10
2024-03-28T22:16:08.499Z,9.6
2024-03-28T22:24:24.259Z,9.5
2024-03-28T22:32:40.050Z,9.5
2024-03-28T22:40:55.778Z,9.4
2024-03-28T22:49:11.538Z,9.3
2024-03-28T22:57:27.294Z,9.3
2024-03-28T23:05:43.167Z,9.3
2024-03-28T23:13:58.803Z,9.5
2024-03-28T23:22:14.554Z,9.5
2024-03-28T23:30:30.260Z,9.4
2024-03-28T23:38:47.967Z,9.3
2024-03-28T23:47:01.772Z,9.2
2024-03-28T23:55:17.497Z,8.8
